Time;durP1;ratioP1;P1;durP2;ratioP2;P2;SDS_P1;SDS_P2;PMS_P1;PMS_P2;Temp;Humidity;BMP_temperature;BMP_pressure;BME280_temperature;BME280_humidity;BME280_pressure;Samples;Min_cycle;Max_cycle;Signal;HPM_P1;HPM_P2
2021/01/18 00:00:45;;;;;;;;;;;-1.30;89.80;;;;;;5108701;27;19932;-72
2021/01/18 00:03:12;;;;;;;;;;;-1.30;90.10;;;;;;5093290;28;19957;-72
2021/01/18 00:05:38;;;;;;;;;;;-1.30;90.00;;;;;;5091156;28;20356;-72
2021/01/18 00:08:05;;;;;;;;;;;-1.30;90.00;;;;;;5093821;28;20481;-72
2021/01/18 00:10:31;;;;;;;;;;;-1.30;90.10;;;;;;5093966;28;19989;-72
2021/01/18 00:12:59;;;;;;;;;;;-1.20;90.10;;;;;;5106827;28;19927;-72
2021/01/18 00:15:26;;;;;;;;;;;-1.20;89.30;;;;;;5113124;28;20268;-72
2021/01/18 00:17:53;;;;;;;;;;;-1.20;89.70;;;;;;5095808;28;20347;-72
2021/01/18 00:20:21;;;;;;;;;;;-1.20;89.70;;;;;;5094834;28;20347;-72
2021/01/18 00:22:47;;;;;;;;;;;-1.20;90.10;;;;;;5110740;28;19966;-72
2021/01/18 00:25:15;;;;;;;;;;;-1.20;90.00;;;;;;5112754;28;20359;-72
2021/01/18 00:27:43;;;;;;;88.57;42.25;;;-1.10;89.90;;;;;;5100675;28;20459;-72
2021/01/18 00:30:13;;;;;;;87.13;47.85;;;-1.00;89.10;;;;;;5091629;28;20463;-72
2021/01/18 00:32:40;;;;;;;88.22;47.97;;;-1.10;89.60;;;;;;5089321;27;20410;-72
2021/01/18 00:35:09;;;;;;;83.38;46.65;;;-1.10;89.80;;;;;;5090996;28;20398;-72
2021/01/18 00:37:52;;;;;;;79.82;47.60;;;-1.10;89.20;;;;;;5091023;27;20408;-72
2021/01/18 00:40:24;;;;;;;80.80;47.70;;;-1.20;89.70;;;;;;5132619;27;20394;-72
2021/01/18 00:42:50;;;;;;;82.93;49.27;;;-1.20;90.20;;;;;;5126709;27;20395;-72
2021/01/18 00:45:18;;;;;;;81.47;49.40;;;-1.10;90.10;;;;;;5090429;28;20846;-72
2021/01/18 00:47:53;;;;;;;79.47;48.30;;;-1.10;90.10;;;;;;5091376;28;20418;-72
2021/01/18 00:50:24;;;;;;;81.90;49.53;;;-1.10;90.00;;;;;;5088768;27;20398;-72
2021/01/18 00:52:52;;;;;;;79.85;49.03;;;-1.10;90.00;;;;;;5090575;28;20406;-72
2021/01/18 00:55:20;;;;;;;83.20;50.10;;;-1.10;90.00;;;;;;5104541;27;20444;-72
2021/01/18 00:57:48;;;;;;;78.75;49.00;;;-1.10;90.10;;;;;;5110908;28;20400;-72
2021/01/18 01:00:18;;;;;;;81.65;50.30;;;-1.10;90.10;;;;;;5120896;27;20398;-72
2021/01/18 01:02:47;;;;;;;78.95;48.85;;;-1.10;90.20;;;;;;5132376;27;20395;-72
2021/01/18 01:05:22;;;;;;;82.00;50.25;;;-1.10;90.20;;;;;;5114698;27;20400;-72
2021/01/18 01:07:51;;;;;;;83.45;50.83;;;-1.10;90.50;;;;;;5110893;28;20400;-72
2021/01/18 01:10:24;;;;;;;84.95;51.92;;;-1.10;90.50;;;;;;5097788;28;20410;-72
2021/01/18 01:13:04;;;;;;;84.93;52.28;;;-1.10;90.70;;;;;;5090104;28;20502;-72
2021/01/18 01:15:32;;;;;;;89.55;53.80;;;-1.20;90.90;;;;;;5087581;28;20497;-72
2021/01/18 01:17:58;;;;;;;82.80;52.92;;;-1.20;91.20;;;;;;5091277;28;20402;-72
2021/01/18 01:20:27;;;;;;;87.10;53.05;;;-1.20;91.20;;;;;;5091729;27;20440;-72
2021/01/18 01:22:56;;;;;;;89.70;53.92;;;-1.20;91.30;;;;;;5111122;28;20945;-72
2021/01/18 01:25:25;;;;;;;93.53;54.88;;;-1.20;91.50;;;;;;5103814;28;20467;-72
2021/01/18 01:27:52;;;;;;;87.78;54.85;;;-1.20;91.70;;;;;;5090776;28;20538;-72
2021/01/18 01:30:22;;;;;;;86.88;54.55;;;-1.30;91.90;;;;;;5089135;28;20414;-72
2021/01/18 01:32:55;;;;;;;88.72;54.83;;;-1.30;91.90;;;;;;5088965;28;20773;-72
2021/01/18 01:35:23;;;;;;;90.97;55.75;;;-1.20;92.00;;;;;;5089632;28;20447;-72
2021/01/18 01:37:51;;;;;;;90.30;54.90;;;-1.20;92.30;;;;;;5104963;28;20407;-72
2021/01/18 01:40:18;;;;;;;93.30;55.35;;;-1.20;92.20;;;;;;5110923;27;20469;-72
2021/01/18 01:42:48;;;;;;;86.28;53.40;;;-1.20;92.20;;;;;;5091936;28;20398;-72
2021/01/18 01:45:16;;;;;;;89.28;53.83;;;-1.20;92.10;;;;;;5089582;28;20700;-72
2021/01/18 01:47:52;;;;;;;90.72;55.55;;;-1.20;92.10;;;;;;5099569;28;20666;-72
2021/01/18 01:50:20;;;;;;;87.73;54.00;;;-1.30;92.30;;;;;;5110997;28;20410;-72
2021/01/18 01:53:03;;;;;;;94.13;57.90;;;-1.20;92.40;;;;;;5096453;28;20497;-72
2021/01/18 01:55:31;;;;;;;87.55;54.25;;;-1.20;92.80;;;;;;5089001;28;20436;-72
2021/01/18 01:58:02;;;;;;;91.78;56.47;;;-1.20;92.60;;;;;;5086441;28;20708;-72
2021/01/18 02:00:36;;;;;;;90.93;55.43;;;-1.20;92.80;;;;;;5109004;28;20787;-72
2021/01/18 02:03:14;;;;;;;88.88;55.67;;;-1.20;92.90;;;;;;5099246;28;20881;-72
2021/01/18 02:05:42;;;;;;;89.72;56.10;;;-1.20;92.60;;;;;;5090326;28;20402;-72
2021/01/18 02:08:10;;;;;;;93.35;56.88;;;-1.20;92.80;;;;;;5087593;28;20437;-72
2021/01/18 02:10:39;;;;;;;99.03;60.15;;;-1.20;92.80;;;;;;5089220;28;21261;-72
2021/01/18 02:13:21;;;;;;;97.03;58.78;;;-1.20;93.10;;;;;;5086904;28;20406;-72
2021/01/18 02:16:17;;;;;;;97.57;58.97;;;-1.10;93.20;;;;;;5089296;28;20445;-72
2021/01/18 02:19:12;;;;;;;96.68;58.97;;;-1.20;93.10;;;;;;5088886;28;20445;-72
2021/01/18 02:22:07;;;;;;;90.88;56.72;;;-1.10;93.20;;;;;;5107110;28;20952;-72
2021/01/18 02:24:43;;;;;;;94.93;57.65;;;-1.00;93.00;;;;;;5110498;27;20459;-72
2021/01/18 02:27:17;;;;;;;95.07;59.00;;;-1.10;93.20;;;;;;5134110;27;20459;-72
2021/01/18 02:30:25;;;;;;;103.88;60.33;;;-1.10;93.20;;;;;;5121469;27;20880;-72
2021/01/18 02:33:29;;;;;;;101.05;61.70;;;-1.00;93.40;;;;;;5100808;27;20419;-72
2021/01/18 02:36:27;;;;;;;103.93;61.50;;;-1.10;93.30;;;;;;5085707;28;20440;-72
2021/01/18 02:39:46;;;;;;;98.68;58.25;;;-1.20;93.60;;;;;;5113588;28;20396;-72
2021/01/18 02:42:35;;;;;;;93.30;57.15;;;-1.10;93.50;;;;;;5127393;27;20423;-72
2021/01/18 02:45:03;;;;;;;105.53;62.77;;;-1.20;93.60;;;;;;5121303;27;20402;-72
2021/01/18 02:47:31;;;;;;;103.30;61.42;;;-1.20;93.80;;;;;;5092895;28;20502;-72
2021/01/18 02:50:00;;;;;;;97.88;60.22;;;-1.20;93.80;;;;;;5091703;27;20401;-72
2021/01/18 02:52:29;;;;;;;99.05;59.92;;;-1.20;94.10;;;;;;5093464;28;20441;-72
2021/01/18 02:54:56;;;;;;;101.25;61.22;;;-1.10;93.90;;;;;;5092175;28;20508;-72
2021/01/18 02:57:25;;;;;;;101.88;60.72;;;-1.10;93.80;;;;;;5089267;28;20429;-72
2021/01/18 02:59:52;;;;;;;101.20;60.50;;;-1.10;93.70;;;;;;5106769;28;20396;-72
2021/01/18 03:02:46;;;;;;;98.95;60.08;;;-1.10;93.80;;;;;;5124562;27;20430;-72
2021/01/18 03:05:39;;;;;;;104.07;62.25;;;-1.10;94.10;;;;;;5123030;27;20400;-72
2021/01/18 03:08:20;;;;;;;98.80;60.55;;;-1.10;94.00;;;;;;5110538;27;20404;-72
2021/01/18 03:10:55;;;;;;;97.72;59.30;;;-1.00;93.80;;;;;;5114429;28;20412;-72
2021/01/18 03:13:24;;;;;;;107.75;61.35;;;-1.10;93.80;;;;;;5109626;28;20860;-72
2021/01/18 03:15:55;;;;;;;111.60;64.28;;;-1.10;93.90;;;;;;5113341;28;20424;-72
2021/01/18 03:18:23;;;;;;;105.00;62.03;;;-1.10;94.10;;;;;;5092771;27;20401;-72
2021/01/18 03:20:50;;;;;;;105.10;63.97;;;-1.00;94.30;;;;;;5099382;28;20808;-72
2021/01/18 03:23:19;;;;;;;103.57;63.05;;;-1.00;94.20;;;;;;5108666;28;20450;-72
2021/01/18 03:25:46;;;;;;;105.38;62.47;;;-1.10;94.20;;;;;;5112398;28;20400;-72
2021/01/18 03:28:12;;;;;;;103.03;61.17;;;-1.10;94.20;;;;;;5096584;28;20739;-72
2021/01/18 03:30:39;;;;;;;103.70;62.55;;;-1.10;94.30;;;;;;5092992;28;20443;-72
2021/01/18 03:33:06;;;;;;;105.88;62.88;;;-1.00;94.40;;;;;;5089738;27;20862;-72
2021/01/18 03:35:32;;;;;;;104.25;62.58;;;-1.00;94.20;;;;;;5091692;28;20865;-72
2021/01/18 03:38:00;;;;;;;105.78;63.55;;;-1.00;94.30;;;;;;5090164;28;20463;-72
2021/01/18 03:40:28;;;;;;;113.85;64.82;;;-1.00;94.30;;;;;;5091818;28;20490;-72
2021/01/18 03:43:02;;;;;;;108.03;62.95;;;-1.10;94.60;;;;;;5089604;28;20460;-72
2021/01/18 03:45:31;;;;;;;103.17;62.93;;;-1.10;94.50;;;;;;5092768;28;21239;-72
2021/01/18 03:47:58;;;;;;;116.90;67.43;;;-1.10;94.60;;;;;;5093016;28;20402;-72
2021/01/18 03:50:24;;;;;;;117.20;67.82;;;-1.10;94.80;;;;;;5088529;28;20463;-72
2021/01/18 03:52:52;;;;;;;115.43;67.32;;;-0.90;94.90;;;;;;5092024;28;20406;-72
2021/01/18 03:55:20;;;;;;;117.55;68.75;;;-1.00;94.80;;;;;;5089934;28;20548;-72
2021/01/18 03:57:51;;;;;;;112.32;64.97;;;-1.00;94.80;;;;;;5091666;28;20779;-72
2021/01/18 04:00:20;;;;;;;111.03;65.57;;;-1.00;94.90;;;;;;5093253;28;20402;-72
2021/01/18 04:02:51;;;;;;;111.97;66.33;;;-1.00;94.90;;;;;;5091500;28;20419;-72
2021/01/18 04:05:19;;;;;;;113.88;67.45;;;-1.00;95.00;;;;;;5100937;28;20586;-72
2021/01/18 04:07:49;;;;;;;118.80;67.93;;;-1.00;95.00;;;;;;5111879;28;20408;-72
2021/01/18 04:10:21;;;;;;;114.63;67.47;;;-1.00;95.30;;;;;;5100450;28;20433;-72
2021/01/18 04:12:49;;;;;;;122.45;69.28;;;-1.00;95.20;;;;;;5091394;28;20454;-72
2021/01/18 04:15:17;;;;;;;116.00;67.23;;;-1.00;95.30;;;;;;5090479;28;20471;-72
2021/01/18 04:17:50;;;;;;;119.68;68.35;;;-1.00;95.30;;;;;;5091262;28;20426;-72
2021/01/18 04:20:18;;;;;;;113.15;66.07;;;-1.00;95.30;;;;;;5091920;27;20836;-72
2021/01/18 04:22:50;;;;;;;119.00;68.07;;;-0.90;95.30;;;;;;5111058;28;20396;-72
2021/01/18 04:25:20;;;;;;;112.88;66.13;;;-0.90;95.50;;;;;;5108004;28;20397;-72
2021/01/18 04:27:58;;;;;;;118.88;67.50;;;-0.90;95.30;;;;;;5090819;28;20846;-72
2021/01/18 04:30:26;;;;;;;118.15;66.57;;;-1.00;95.50;;;;;;5090836;28;20394;-72
2021/01/18 04:32:52;;;;;;;111.40;65.53;;;-0.90;95.50;;;;;;5091387;28;20754;-72
2021/01/18 04:35:19;;;;;;;118.40;68.27;;;-0.90;95.40;;;;;;5091938;28;20467;-72
2021/01/18 04:37:45;;;;;;;123.05;69.05;;;-0.80;95.60;;;;;;5088006;28;20430;-72
2021/01/18 04:40:12;;;;;;;108.73;64.23;;;-0.90;95.70;;;;;;5091164;28;20460;-72
2021/01/18 04:42:38;;;;;;;114.72;65.10;;;-0.90;95.50;;;;;;5087610;28;20406;-72
2021/01/18 04:45:06;;;;;;;121.90;68.45;;;-0.90;95.70;;;;;;5091824;28;20463;-72
2021/01/18 04:47:35;;;;;;;113.32;65.05;;;-0.80;95.90;;;;;;5107727;27;20403;-72
2021/01/18 04:50:02;;;;;;;117.53;65.93;;;-0.80;95.70;;;;;;5131712;27;20407;-72
2021/01/18 04:52:45;;;;;;;111.83;65.13;;;-0.80;95.70;;;;;;5119189;27;20430;-72
2021/01/18 04:55:37;;;;;;;116.53;66.82;;;-0.80;95.60;;;;;;5111511;28;20456;-72
2021/01/18 04:58:13;;;;;;;119.90;67.38;;;-0.80;95.70;;;;;;5097729;28;20441;-72
2021/01/18 05:00:51;;;;;;;114.47;66.22;;;-0.80;95.80;;;;;;5107237;28;20422;-72
2021/01/18 05:03:22;;;;;;;112.78;64.38;;;-0.80;95.80;;;;;;5105574;27;20407;-72
2021/01/18 05:05:51;;;;;;;119.03;66.55;;;-0.80;95.90;;;;;;5116770;27;20404;-72
2021/01/18 05:08:52;;;;;;;110.72;63.83;;;-0.70;95.90;;;;;;5112935;27;20409;-72
2021/01/18 05:11:18;;;;;;;104.35;61.67;;;-0.70;96.10;;;;;;5132150;27;20801;-72
2021/01/18 05:13:45;;;;;;;105.63;61.97;;;-0.70;95.90;;;;;;5112412;27;20406;-72
2021/01/18 05:16:12;;;;;;;105.67;60.93;;;-0.50;96.10;;;;;;5090984;28;20511;-72
2021/01/18 05:18:42;;;;;;;99.23;59.57;;;-0.60;96.00;;;;;;5088899;28;20413;-72
2021/01/18 05:21:10;;;;;;;93.95;56.33;;;-0.60;96.10;;;;;;5099897;28;20858;-72
2021/01/18 05:23:44;;;;;;;88.28;53.75;;;-0.50;96.00;;;;;;5107023;28;20489;-72
2021/01/18 05:26:19;;;;;;;82.68;51.50;;;-0.50;96.00;;;;;;5110247;28;20500;-72
2021/01/18 05:28:49;;;;;;;86.88;51.95;;;-0.50;96.00;;;;;;5107330;28;20423;-72
2021/01/18 05:31:28;;;;;;;84.32;51.33;;;-0.50;96.20;;;;;;5089717;28;20398;-72
2021/01/18 05:34:03;;;;;;;80.00;50.15;;;-0.50;96.20;;;;;;5090876;28;20463;-72
2021/01/18 05:36:32;;;;;;;79.68;48.97;;;-0.40;96.20;;;;;;5089012;28;20430;-72
2021/01/18 05:39:22;;;;;;;77.30;47.95;;;-0.50;96.10;;;;;;5089687;28;20830;-72
2021/01/18 05:41:50;;;;;;;74.63;47.10;;;-0.40;96.10;;;;;;5090039;28;20426;-72
2021/01/18 05:44:20;;;;;;;78.68;48.15;;;-0.40;96.00;;;;;;5090945;28;20394;-72
2021/01/18 05:46:49;;;;;;;77.60;48.23;;;-0.40;96.00;;;;;;5104999;28;20473;-72
2021/01/18 05:49:22;;;;;;;89.63;52.38;;;-0.40;96.00;;;;;;5109902;28;20404;-72
2021/01/18 05:51:50;;;;;;;78.97;48.63;;;-0.40;96.40;;;;;;5091519;28;20406;-72
2021/01/18 05:54:30;;;;;;;85.85;51.45;;;-0.40;96.30;;;;;;5090226;28;20845;-72
2021/01/18 05:56:56;;;;;;;84.38;51.50;;;-0.40;96.40;;;;;;5087001;28;20903;-72
2021/01/18 05:59:25;;;;;;;78.65;49.55;;;-0.40;96.40;;;;;;5099621;28;20415;-72
2021/01/18 06:01:53;;;;;;;88.00;52.53;;;-0.30;96.40;;;;;;5096457;28;20434;-72
2021/01/18 06:04:27;;;;;;;89.45;52.83;;;-0.40;96.40;;;;;;5096941;28;20421;-72
2021/01/18 06:07:02;;;;;;;82.00;49.65;;;-0.30;96.50;;;;;;5086615;28;20402;-72
2021/01/18 06:09:51;;;;;;;83.10;51.27;;;-0.30;96.40;;;;;;5090699;28;20409;-72
2021/01/18 06:12:25;;;;;;;85.97;51.97;;;-0.30;96.50;;;;;;5087218;28;20416;-72
2021/01/18 06:15:24;;;;;;;76.75;48.65;;;-0.30;96.50;;;;;;5090241;28;20742;-72
2021/01/18 06:17:56;;;;;;;83.80;51.58;;;-0.30;96.50;;;;;;5065468;28;20487;-72
2021/01/18 06:20:23;;;;;;;87.78;52.53;;;-0.30;96.50;;;;;;5103668;28;20503;-72
2021/01/18 06:22:52;;;;;;;78.18;49.90;;;-0.30;96.60;;;;;;5115406;28;20414;-72
2021/01/18 06:25:20;;;;;;;86.75;50.17;;;-0.30;96.50;;;;;;5130247;28;20442;-72
2021/01/18 06:27:46;;;;;;;83.68;51.40;;;-0.30;96.50;;;;;;5114418;28;20406;-72
2021/01/18 06:30:32;;;;;;;87.57;52.20;;;-0.20;96.60;;;;;;5090536;28;20468;-72
2021/01/18 06:33:11;;;;;;;86.45;51.50;;;-0.20;96.60;;;;;;5086004;28;20406;-72
2021/01/18 06:35:38;;;;;;;91.13;54.03;;;-0.30;96.50;;;;;;5089023;28;20398;-72
2021/01/18 06:38:06;;;;;;;87.63;53.97;;;-0.20;96.40;;;;;;5087059;28;20401;-72
2021/01/18 06:40:35;;;;;;;96.03;57.95;;;-0.20;96.40;;;;;;5089321;28;20430;-72
2021/01/18 06:43:03;;;;;;;94.25;57.00;;;-0.20;96.40;;;;;;5086777;28;20788;-71
2021/01/18 06:45:35;;;;;;;94.60;57.53;;;-0.20;96.30;;;;;;5106805;28;20424;-71
2021/01/18 06:48:03;;;;;;;102.45;59.95;;;-0.20;96.30;;;;;;5109800;28;20536;-71
2021/01/18 06:50:37;;;;;;;108.80;64.03;;;-0.20;96.10;;;;;;5086694;28;20410;-71
2021/01/18 06:53:24;;;;;;;105.20;62.92;;;-0.20;96.20;;;;;;5089475;28;20467;-71
2021/01/18 06:55:59;;;;;;;106.72;64.60;;;-0.30;96.00;;;;;;5086116;28;20874;-71
2021/01/18 06:58:33;;;;;;;106.83;62.23;;;-0.30;96.00;;;;;;5092430;28;20428;-71
2021/01/18 07:01:02;;;;;;;110.97;65.82;;;-0.30;95.90;;;;;;5087480;28;20475;-71
2021/01/18 07:03:39;;;;;;;117.53;65.97;;;-0.30;96.00;;;;;;5094964;28;20980;-71
2021/01/18 07:06:23;;;;;;;108.35;63.25;;;-0.30;96.10;;;;;;5092388;27;20455;-71
2021/01/18 07:08:57;;;;;;;104.78;64.38;;;-0.30;95.90;;;;;;5100231;28;20461;-71
2021/01/18 07:11:24;;;;;;;112.50;68.00;;;-0.30;95.80;;;;;;5091963;28;20475;-71
2021/01/18 07:13:50;;;;;;;113.63;68.70;;;-0.30;95.90;;;;;;5092531;28;20434;-71
2021/01/18 07:16:19;;;;;;;113.18;68.28;;;-0.30;95.90;;;;;;5088713;28;20418;-71
2021/01/18 07:18:54;;;;;;;114.25;67.80;;;-0.40;95.70;;;;;;5113733;28;20396;-71
2021/01/18 07:21:26;;;;;;;110.23;67.20;;;-0.30;95.70;;;;;;5098338;28;20414;-71
2021/01/18 07:24:00;;;;;;;111.47;67.53;;;-0.40;95.60;;;;;;5111503;28;20913;-71
2021/01/18 07:26:58;;;;;;;116.18;70.32;;;-0.40;95.60;;;;;;5100552;28;20460;-71
2021/01/18 07:29:30;;;;;;;116.07;70.95;;;-0.40;95.60;;;;;;5092065;28;20417;-71
2021/01/18 07:31:58;;;;;;;121.00;72.10;;;-0.40;95.50;;;;;;5089793;28;20394;-71
2021/01/18 07:34:27;;;;;;;112.22;67.32;;;-0.40;95.50;;;;;;5092823;28;20434;-71
2021/01/18 07:37:08;;;;;;;116.77;70.73;;;-0.40;95.60;;;;;;5088947;28;20482;-71
2021/01/18 07:39:40;;;;;;;121.82;72.65;;;-0.40;95.50;;;;;;5101470;28;20473;-71
2021/01/18 07:42:32;;;;;;;117.25;72.25;;;-0.40;95.60;;;;;;5102312;27;20406;-71
2021/01/18 07:45:12;;;;;;;115.10;69.63;;;-0.40;95.60;;;;;;5095907;28;20460;-71
2021/01/18 07:47:57;;;;;;;116.10;69.80;;;-0.40;95.50;;;;;;5107763;28;20477;-71
2021/01/18 07:50:37;;;;;;;123.63;72.05;;;-0.40;95.40;;;;;;5111968;28;20400;-71
2021/01/18 07:53:06;;;;;;;119.43;71.80;;;-0.40;95.50;;;;;;5104129;28;20930;-71
2021/01/18 07:55:34;;;;;;;134.25;69.47;;;-0.50;95.40;;;;;;5111627;28;20480;-71
2021/01/18 07:58:17;;;;;;;119.17;68.33;;;-0.40;95.70;;;;;;5101847;27;20432;-71
2021/01/18 08:00:48;;;;;;;115.65;66.38;;;-0.40;95.50;;;;;;5092783;28;20406;-71
2021/01/18 08:03:18;;;;;;;111.70;66.93;;;-0.30;95.30;;;;;;5088099;27;20405;-71
2021/01/18 08:05:45;;;;;;;122.53;66.88;;;-0.30;95.10;;;;;;5091455;28;20916;-71
2021/01/18 08:08:16;;;;;;;116.23;65.70;;;-0.30;95.40;;;;;;5087840;27;20835;-72
2021/01/18 08:10:54;;;;;;;126.10;65.47;;;-0.20;95.60;;;;;;5092208;28;20778;-71
2021/01/18 08:13:53;;;;;;;110.97;63.10;;;-0.10;95.60;;;;;;5090427;28;20859;-71
2021/01/18 08:16:44;;;;;;;103.17;62.10;;;0.00;95.00;;;;;;5090887;28;20513;-71
2021/01/18 08:19:17;;;;;;;106.20;65.10;;;-0.10;94.40;;;;;;5087796;28;20410;-71
2021/01/18 08:21:49;;;;;;;100.45;62.85;;;-0.20;94.50;;;;;;5104608;28;20916;-71
2021/01/18 08:24:36;;;;;;;102.70;63.22;;;-0.30;93.80;;;;;;5103515;28;21052;-71
2021/01/18 08:27:04;;;;;;;102.28;62.63;;;-0.40;94.10;;;;;;5088024;28;20811;-71
2021/01/18 08:29:37;;;;;;;202.20;69.43;;;-0.40;94.00;;;;;;5087646;28;20430;-71
2021/01/18 08:32:30;;;;;;;167.25;65.57;;;-0.30;94.80;;;;;;5092079;28;20401;-71
2021/01/18 08:35:05;;;;;;;148.82;62.95;;;-0.20;94.50;;;;;;5101148;28;20448;-71
2021/01/18 08:37:33;;;;;;;114.82;62.58;;;-0.20;93.80;;;;;;5091415;28;20430;-71
2021/01/18 08:40:19;;;;;;;129.20;67.05;;;-0.20;93.80;;;;;;5089433;28;20525;-71
2021/01/18 08:42:54;;;;;;;100.15;61.55;;;-0.30;94.40;;;;;;5091604;28;20402;-71
2021/01/18 08:45:29;;;;;;;118.93;63.60;;;-0.10;93.30;;;;;;5087972;28;20495;-71
2021/01/18 08:48:00;;;;;;;100.03;60.65;;;-0.10;94.10;;;;;;5091189;28;20496;-71
2021/01/18 08:50:34;;;;;;;99.47;61.47;;;0.00;93.10;;;;;;5087222;28;20479;-71
2021/01/18 08:53:21;;;;;;;102.85;63.22;;;-0.10;93.40;;;;;;5091791;28;20814;-71
2021/01/18 08:55:51;;;;;;;99.05;62.70;;;-0.30;93.80;;;;;;5091211;27;20493;-71
2021/01/18 08:58:31;;;;;;;98.88;61.67;;;-0.30;94.10;;;;;;5110889;28;20430;-71
2021/01/18 09:00:59;;;;;;;99.93;62.20;;;-0.30;93.90;;;;;;5108692;27;20436;-71
2021/01/18 09:03:27;;;;;;;101.00;63.88;;;-0.30;93.60;;;;;;5132054;27;20809;-70
2021/01/18 09:05:55;;;;;;;99.30;61.50;;;-0.30;93.80;;;;;;5115922;27;20400;-70
2021/01/18 09:08:27;;;;;;;110.47;66.55;;;-0.10;93.50;;;;;;5088567;28;20423;-70
2021/01/18 09:11:01;;;;;;;108.28;66.00;;;-0.20;93.70;;;;;;5089756;28;20854;-70
2021/01/18 09:13:30;;;;;;;105.35;64.57;;;-0.30;94.10;;;;;;5087455;28;20459;-70
2021/01/18 09:16:00;;;;;;;100.13;62.80;;;-0.30;94.40;;;;;;5090249;28;20467;-70
2021/01/18 09:18:30;;;;;;;97.05;60.75;;;-0.10;93.90;;;;;;5087580;28;20414;-70
2021/01/18 09:20:58;;;;;;;96.90;61.60;;;0.00;93.70;;;;;;5098258;28;20813;-70
2021/01/18 09:23:25;;;;;;;95.38;60.17;;;0.00;93.60;;;;;;5103178;27;20416;-70
2021/01/18 09:26:02;;;;;;;102.15;62.88;;;0.00;93.50;;;;;;5110912;28;20398;-70
2021/01/18 09:28:29;;;;;;;98.25;62.30;;;-0.10;94.10;;;;;;5108006;28;20786;-70
2021/01/18 09:30:56;;;;;;;100.90;62.30;;;-0.10;94.20;;;;;;5100518;28;20596;-73
2021/01/18 09:33:29;;;;;;;97.90;60.85;;;0.00;94.10;;;;;;5100438;27;20394;-71
2021/01/18 09:35:57;;;;;;;95.10;60.08;;;-0.10;94.10;;;;;;5131482;27;20452;-71
2021/01/18 09:38:24;;;;;;;99.97;63.55;;;-0.10;94.10;;;;;;5118549;27;20838;-71
2021/01/18 09:40:50;;;;;;;100.40;62.22;;;-0.10;94.40;;;;;;5090576;28;20402;-71
2021/01/18 09:43:20;;;;;;;101.33;62.73;;;0.00;94.30;;;;;;5086969;28;20501;-71
2021/01/18 09:45:57;;;;;;;100.20;63.37;;;0.00;94.40;;;;;;5090930;28;20471;-71
2021/01/18 09:48:25;;;;;;;104.60;63.88;;;0.00;94.50;;;;;;5089742;28;20398;-71
2021/01/18 09:51:08;;;;;;;115.50;69.75;;;0.00;94.70;;;;;;5094555;27;20494;-71
2021/01/18 09:53:37;;;;;;;107.85;67.45;;;0.10;94.70;;;;;;5109939;28;20821;-71
2021/01/18 09:56:26;;;;;;;109.00;66.50;;;0.10;94.50;;;;;;5087063;28;20487;-71
2021/01/18 09:58:59;;;;;;;100.95;62.42;;;0.10;94.50;;;;;;5096690;28;20465;-71
2021/01/18 10:01:33;;;;;;;107.57;62.67;;;0.20;94.40;;;;;;5089034;28;20435;-71
2021/01/18 10:04:03;;;;;;;103.45;62.72;;;0.20;94.20;;;;;;5090417;28;20435;-71
2021/01/18 10:06:36;;;;;;;97.72;61.92;;;0.20;94.30;;;;;;5086994;28;20792;-71
2021/01/18 10:09:14;;;;;;;107.05;61.50;;;0.30;94.50;;;;;;5090741;28;20463;-71
2021/01/18 10:11:49;;;;;;;97.18;60.45;;;0.40;94.50;;;;;;5086056;28;20429;-71
2021/01/18 10:14:27;;;;;;;91.15;58.22;;;0.40;94.40;;;;;;5090959;28;20474;-71
2021/01/18 10:16:57;;;;;;;94.13;58.65;;;0.40;94.40;;;;;;5096112;28;20881;-71
2021/01/18 10:19:23;;;;;;;94.00;57.42;;;0.40;94.50;;;;;;5110794;28;20418;-71
2021/01/18 10:21:50;;;;;;;87.70;55.53;;;0.50;94.60;;;;;;5093453;28;20453;-71
2021/01/18 10:24:28;;;;;;;90.25;57.70;;;0.50;94.60;;;;;;5104758;28;20454;-71
2021/01/18 10:27:05;;;;;;;89.32;56.72;;;0.60;94.60;;;;;;5108535;28;20402;-71
2021/01/18 10:29:33;;;;;;;89.05;56.60;;;0.70;94.50;;;;;;5089783;28;20738;-71
2021/01/18 10:32:03;;;;;;;95.38;59.92;;;0.70;94.50;;;;;;5087346;28;20483;-71
2021/01/18 10:34:34;;;;;;;91.53;58.08;;;0.80;94.50;;;;;;5090578;28;20406;-71
2021/01/18 10:37:19;;;;;;;1206.80;173.05;;;0.90;94.20;;;;;;5085843;28;20422;-71
2021/01/18 10:39:46;;;;;;;511.20;96.38;;;1.00;94.40;;;;;;5092932;28;20398;-71
2021/01/18 10:42:15;;;;;;;812.90;123.78;;;1.10;94.40;;;;;;5089798;27;20869;-71
2021/01/18 10:44:50;;;;;;;569.78;98.05;;;1.10;94.50;;;;;;5092700;28;20449;-71
2021/01/18 10:47:35;;;;;;;245.20;71.00;;;1.10;94.50;;;;;;5089593;28;20417;-71
2021/01/18 10:50:02;;;;;;;223.38;69.57;;;1.30;94.20;;;;;;5093270;28;20406;-71
2021/01/18 10:52:32;;;;;;;636.90;101.28;;;1.30;94.20;;;;;;5092670;28;20487;-71
2021/01/18 10:55:00;;;;;;;570.57;99.40;;;1.40;94.70;;;;;;5112824;28;20415;-71
2021/01/18 10:57:53;;;;;;;439.35;84.53;;;1.50;94.30;;;;;;5105861;27;20422;-71
2021/01/18 11:00:21;;;;;;;366.40;77.90;;;1.60;94.00;;;;;;5111513;28;20405;-71
2021/01/18 11:03:04;;;;;;;136.63;61.03;;;1.70;94.00;;;;;;5089944;28;20413;-71
2021/01/18 11:05:35;;;;;;;89.72;54.72;;;1.80;93.80;;;;;;5093421;28;20394;-72
2021/01/18 11:08:06;;;;;;;87.57;56.67;;;1.80;93.50;;;;;;5097137;28;20416;-71
2021/01/18 11:10:39;;;;;;;85.35;55.05;;;1.80;93.90;;;;;;5092842;28;20417;-71
2021/01/18 11:13:20;;;;;;;62.47;39.63;;;1.70;94.00;;;;;;5095526;28;20404;-71
2021/01/18 11:15:48;;;;;;;62.93;38.20;;;1.80;94.60;;;;;;5093893;28;20406;-71
2021/01/18 11:18:15;;;;;;;51.20;33.10;;;1.80;94.40;;;;;;5076203;28;20475;-71
2021/01/18 11:20:45;;;;;;;41.83;26.58;;;1.90;94.60;;;;;;5089356;28;20463;-71
2021/01/18 11:23:12;;;;;;;23.87;16.73;;;2.00;94.40;;;;;;5100169;28;20476;-71
2021/01/18 11:25:41;;;;;;;16.23;12.17;;;2.00;94.70;;;;;;5089365;27;20406;-71
2021/01/18 11:28:13;;;;;;;11.65;9.07;;;2.00;94.90;;;;;;5098094;28;20492;-71
2021/01/18 11:30:41;;;;;;;9.27;7.13;;;2.10;94.70;;;;;;5095631;28;20408;-71
2021/01/18 11:33:10;;;;;;;7.90;6.13;;;2.20;94.60;;;;;;5092421;28;20711;-71
2021/01/18 11:35:42;;;;;;;8.13;6.40;;;2.20;94.40;;;;;;5088090;28;20463;-71
2021/01/18 11:38:12;;;;;;;8.02;6.03;;;2.20;94.50;;;;;;5091978;28;20792;-72
2021/01/18 11:40:40;;;;;;;7.85;5.78;;;2.20;94.40;;;;;;5093029;27;20424;-71
2021/01/18 11:43:09;;;;;;;7.07;6.13;;;2.20;94.40;;;;;;5112726;28;20485;-72
2021/01/18 11:45:36;;;;;;;7.28;5.68;;;2.30;94.40;;;;;;5102733;28;20425;-72
2021/01/18 11:48:04;;;;;;;6.22;5.50;;;2.20;94.50;;;;;;5092363;28;20398;-71
2021/01/18 11:50:32;;;;;;;7.57;5.60;;;2.20;94.60;;;;;;5088450;28;20754;-72
2021/01/18 11:52:59;;;;;;;7.90;5.90;;;2.30;94.50;;;;;;5091866;28;20402;-72
2021/01/18 11:55:26;;;;;;;6.75;5.97;;;2.30;94.40;;;;;;5090017;28;20454;-72
2021/01/18 11:57:52;;;;;;;8.85;6.47;;;2.30;94.30;;;;;;5091159;28;20445;-72
2021/01/18 12:00:27;;;;;;;8.20;6.05;;;2.40;94.40;;;;;;5109650;28;20412;-72
2021/01/18 12:02:55;;;;;;;6.78;6.07;;;2.50;93.90;;;;;;5089764;28;20846;-72
2021/01/18 12:05:27;;;;;;;7.90;6.13;;;2.50;93.90;;;;;;5091298;28;20417;-72
2021/01/18 12:07:55;;;;;;;9.15;6.72;;;2.70;93.80;;;;;;5088295;28;20478;-72
2021/01/18 12:10:23;;;;;;;7.95;6.90;;;2.70;93.40;;;;;;5092823;28;20406;-71
2021/01/18 12:12:50;;;;;;;8.82;6.65;;;2.60;93.30;;;;;;5088055;28;20433;-71
2021/01/18 12:15:17;;;;;;;9.38;7.88;;;2.50;93.70;;;;;;5091747;28;20463;-70
2021/01/18 12:17:44;;;;;;;10.30;8.03;;;2.40;94.00;;;;;;5088693;28;20474;-71
2021/01/18 12:20:19;;;;;;;9.02;7.75;;;2.40;94.00;;;;;;5092252;28;20398;-71
2021/01/18 12:22:46;;;;;;;10.27;8.00;;;2.50;93.90;;;;;;5095960;28;20457;-71
2021/01/18 12:25:13;;;;;;;10.23;8.63;;;2.50;93.90;;;;;;5111655;28;20401;-70
2021/01/18 12:27:40;;;;;;;10.40;8.38;;;2.60;93.70;;;;;;5094853;28;20423;-71
2021/01/18 12:30:08;;;;;;;10.50;8.70;;;2.60;93.60;;;;;;5092090;28;20398;-71
2021/01/18 12:32:35;;;;;;;15.13;9.32;;;2.60;93.60;;;;;;5087632;28;20421;-71
2021/01/18 12:35:02;;;;;;;11.93;9.02;;;2.50;93.90;;;;;;5091596;28;20489;-71
2021/01/18 12:37:33;;;;;;;11.43;9.70;;;2.50;93.80;;;;;;5090761;28;20870;-71
2021/01/18 12:40:00;;;;;;;11.88;9.73;;;2.60;93.50;;;;;;5087687;28;20792;-71
2021/01/18 12:42:28;;;;;;;11.20;9.03;;;2.60;93.70;;;;;;5091715;28;20773;-71
2021/01/18 12:44:55;;;;;;;14.73;10.55;;;2.60;93.50;;;;;;5087873;28;20418;-71
2021/01/18 12:47:21;;;;;;;14.33;10.60;;;2.80;93.20;;;;;;5090775;28;20467;-71
2021/01/18 12:49:50;;;;;;;14.82;11.82;;;2.80;93.20;;;;;;5088058;27;20895;-71
2021/01/18 12:52:18;;;;;;;15.52;11.75;;;2.90;92.80;;;;;;5091531;28;20409;-71
2021/01/18 12:54:48;;;;;;;15.23;12.20;;;2.80;92.90;;;;;;5088349;28;20418;-71
2021/01/18 12:57:14;;;;;;;16.15;12.35;;;2.80;92.90;;;;;;5091519;28;20821;-71